Time;durP1;ratioP1;P1;durP2;ratioP2;P2;SDS_P1;SDS_P2;PMS_P1;PMS_P2;Temp;Humidity;BMP_temperature;BMP_pressure;BME280_temperature;BME280_humidity;BME280_pressure;Samples;Min_cycle;Max_cycle;Signal;HPM_P1;HPM_P2
2022/06/11 00:02:06;;;;;;;8.52;7.10;;;;;;;23.18;83.03;100364.44;4468486;32;20149;-66
2022/06/11 00:04:39;;;;;;;8.10;7.30;;;;;;;23.01;84.39;100364.66;4426066;32;20096;-66
2022/06/11 00:07:10;;;;;;;7.75;6.95;;;;;;;23.22;82.70;100367.78;4468807;32;20072;-66
2022/06/11 00:09:37;;;;;;;10.07;7.32;;;;;;;23.08;83.75;100374.03;4469034;32;20149;-66
2022/06/11 00:12:06;;;;;;;7.68;6.95;;;;;;;23.31;82.29;100368.03;4470897;32;20100;-66
2022/06/11 00:14:34;;;;;;;7.68;6.93;;;;;;;23.26;82.94;100362.09;4470912;32;20756;-66
2022/06/11 00:17:07;;;;;;;8.98;7.40;;;;;;;23.05;84.41;100356.28;4470943;32;20904;-66
2022/06/11 00:19:35;;;;;;;11.55;7.03;;;;;;;22.88;86.04;100367.22;4470828;32;20416;-66
2022/06/11 00:22:04;;;;;;;9.40;7.65;;;;;;;23.07;84.67;100364.22;4470821;32;20164;-66
2022/06/11 00:24:31;;;;;;;10.02;6.97;;;;;;;23.10;83.89;100364.03;4470985;32;20084;-66
2022/06/11 00:27:01;;;;;;;8.93;7.40;;;;;;;23.01;84.00;100373.56;4470953;32;20503;-66
2022/06/11 00:29:32;;;;;;;8.27;7.45;;;;;;;22.87;84.89;100365.50;4470990;32;20085;-66
2022/06/11 00:31:59;;;;;;;10.68;7.43;;;;;;;22.97;84.76;100363.09;4470966;32;20092;-66
2022/06/11 00:34:27;;;;;;;14.10;7.32;;;;;;;23.02;83.79;100359.16;4456262;32;20132;-66
2022/06/11 00:36:54;;;;;;;12.68;7.60;;;;;;;23.06;83.67;100363.38;4470661;32;20076;-66
2022/06/11 00:39:26;;;;;;;9.05;7.32;;;;;;;23.10;83.55;100364.91;4470964;32;20104;-66
2022/06/11 00:41:58;;;;;;;8.20;7.25;;;;;;;23.03;83.63;100373.47;4470956;32;20191;-66
2022/06/11 00:44:26;;;;;;;7.82;7.03;;;;;;;24.15;78.76;100377.72;4470875;32;20100;-66
2022/06/11 00:47:14;;;;;;;7.93;7.05;;;;;;;24.12;77.64;100380.59;4470644;32;20145;-66
2022/06/11 00:49:49;;;;;;;10.20;7.22;;;;;;;24.38;76.89;100378.81;4470731;32;20652;-66
2022/06/11 00:52:24;;;;;;;13.15;7.72;;;;;;;24.40;76.15;100376.06;4470617;32;20084;-66
2022/06/11 00:54:58;;;;;;;8.93;7.40;;;;;;;23.98;76.17;100372.63;4470928;32;20479;-66
2022/06/11 00:57:29;;;;;;;8.65;7.75;;;;;;;23.73;78.20;100368.87;4470616;32;20569;-66
2022/06/11 01:00:03;;;;;;;15.77;7.85;;;;;;;23.45;79.74;100369.81;4470809;32;20111;-66
2022/06/11 01:02:30;;;;;;;10.52;7.95;;;;;;;23.34;80.78;100366.97;4470858;32;20459;-66
2022/06/11 01:05:01;;;;;;;8.95;7.65;;;;;;;23.19;81.43;100379.59;4456055;32;20408;-66
2022/06/11 01:08:07;;;;;;;8.68;7.43;;;;;;;23.40;80.01;100365.72;4470598;32;20072;-66
2022/06/11 01:11:19;;;;;;;14.27;7.82;;;;;;;23.36;80.30;100370.44;4430817;32;20084;-66
2022/06/11 01:13:46;;;;;;;9.73;7.47;;;;;;;23.22;80.57;100368.66;4450935;32;20100;-66
2022/06/11 01:16:34;;;;;;;8.93;8.02;;;;;;;23.27;81.14;100366.50;4470472;32;20601;-66
2022/06/11 01:19:29;;;;;;;8.68;7.55;;;;;;;23.25;81.02;100368.44;4470659;32;20517;-66
2022/06/11 01:22:15;;;;;;;8.52;7.62;;;;;;;23.16;81.12;100366.34;4470382;32;20133;-66
2022/06/11 01:25:32;;;;;;;8.75;7.07;;;;;;;23.18;80.92;100366.22;4470549;32;20088;-66
2022/06/11 01:28:29;;;;;;;18.52;7.55;;;;;;;23.30;80.38;100366.31;4434881;32;20525;-66
2022/06/11 01:31:07;;;;;;;8.57;7.50;;;;;;;23.50;81.49;100365.00;4470273;32;20072;-66
2022/06/11 01:33:43;;;;;;;10.05;7.47;;;;;;;23.35;79.53;100361.47;4470545;32;20140;-66
2022/06/11 01:36:18;;;;;;;10.13;7.95;;;;;;;23.36;78.94;100373.13;4470500;32;20091;-66
2022/06/11 01:39:04;;;;;;;11.18;8.00;;;;;;;23.43;78.56;100369.06;4470242;32;20565;-66
2022/06/11 01:41:40;;;;;;;10.48;7.80;;;;;;;23.35;79.41;100368.69;4470522;32;20073;-66
2022/06/11 01:44:13;;;;;;;8.70;7.80;;;;;;;23.07;80.80;100380.34;4470424;32;20096;-66
2022/06/11 01:46:46;;;;;;;10.27;8.75;;;;;;;23.16;81.02;100378.94;4470372;32;20115;-66
2022/06/11 01:49:20;;;;;;;8.77;7.25;;;;;;;22.99;82.04;100388.06;4470279;32;20607;-66
2022/06/11 01:51:58;;;;;;;15.13;8.35;;;;;;;23.13;81.95;100377.28;4470290;32;20455;-66
2022/06/11 01:54:29;;;;;;;8.38;7.57;;;;;;;23.30;80.04;100382.44;4470294;32;20100;-66
2022/06/11 01:57:14;;;;;;;9.02;8.13;;;;;;;23.22;79.90;100383.91;4470324;32;20100;-66
2022/06/11 01:59:41;;;;;;;10.45;7.53;;;;;;;23.01;81.54;100380.78;4470269;32;20092;-66
2022/06/11 02:02:37;;;;;;;10.15;7.70;;;;;;;23.07;80.84;100386.59;4470191;32;20092;-66
2022/06/11 02:05:13;;;;;;;10.82;7.03;;;;;;;22.83;81.09;100380.94;4470108;32;20464;-66
2022/06/11 02:07:52;;;;;;;12.68;8.25;;;;;;;22.97;80.13;100384.59;4455609;32;20583;-66
2022/06/11 02:10:28;;;;;;;8.48;7.57;;;;;;;22.85;80.01;100381.69;4470155;32;20107;-66
2022/06/11 02:13:01;;;;;;;8.32;7.53;;;;;;;22.86;79.82;100380.75;4470176;32;20161;-66
2022/06/11 02:15:47;;;;;;;7.50;6.80;;;;;;;22.84;80.19;100382.66;4470210;32;20136;-66
2022/06/11 02:18:18;;;;;;;8.68;7.47;;;;;;;23.02;78.45;100391.41;4470080;32;20088;-66
2022/06/11 02:20:51;;;;;;;8.57;7.20;;;;;;;23.12;77.53;100389.87;4470109;32;20104;-66
2022/06/11 02:23:24;;;;;;;9.57;7.40;;;;;;;23.07;77.46;100394.66;4470207;32;20458;-66
2022/06/11 02:25:56;;;;;;;12.32;6.70;;;;;;;23.15;76.58;100394.19;4470174;32;20189;-66
2022/06/11 02:28:28;;;;;;;8.88;7.07;;;;;;;23.08;76.67;100392.87;4470127;32;20529;-66
2022/06/11 02:31:00;;;;;;;7.03;6.43;;;;;;;23.11;76.94;100398.91;4469910;32;20450;-66
2022/06/11 02:33:30;;;;;;;8.00;7.15;;;;;;;22.78;78.54;100391.09;4469072;32;20085;-66
2022/06/11 02:36:04;;;;;;;10.75;7.25;;;;;;;22.46;80.26;100397.59;4470064;32;20149;-66
2022/06/11 02:38:31;;;;;;;8.45;6.75;;;;;;;22.42;80.51;100395.09;4469840;32;20088;-66
2022/06/11 02:41:04;;;;;;;9.90;6.90;;;;;;;22.30;81.69;100400.38;4469942;32;20619;-66
2022/06/11 02:43:32;;;;;;;11.02;7.43;;;;;;;22.26;82.20;100405.06;4469957;32;20492;-66
2022/06/11 02:46:41;;;;;;;11.40;7.55;;;;;;;22.42;81.51;100403.16;4469767;32;20089;-66
2022/06/11 02:48:48;;;;;;;8.10;6.43;;;;;;;22.38;81.16;100409.66;4469816;32;20127;-66
2022/06/11 02:51:17;;;;;;;7.22;6.53;;;;;;;22.39;81.26;100405.16;4469814;32;20104;-66
2022/06/11 02:53:44;;;;;;;8.88;7.30;;;;;;;22.29;81.52;100409.34;4469772;32;20076;-66
2022/06/11 02:56:13;;;;;;;7.85;7.15;;;;;;;22.29;81.75;100412.03;4469825;32;20122;-66
2022/06/11 02:58:41;;;;;;;7.32;6.70;;;;;;;22.47;81.58;100412.75;4469644;32;20203;-66
2022/06/11 03:01:14;;;;;;;7.72;6.97;;;;;;;22.16;81.88;100412.78;4469728;32;20139;-66
2022/06/11 03:03:42;;;;;;;8.20;7.45;;;;;;;22.10;83.00;100409.56;4469813;32;20084;-66
2022/06/11 03:06:11;;;;;;;10.65;7.03;;;;;;;22.18;82.99;100410.00;4469631;32;20590;-66
2022/06/11 03:08:38;;;;;;;7.57;6.87;;;;;;;22.11;82.68;100420.19;4469618;32;20554;-66
2022/06/11 03:11:05;;;;;;;9.95;7.32;;;;;;;22.37;81.40;100417.84;4469562;32;20160;-66
2022/06/11 03:13:33;;;;;;;10.55;7.82;;;;;;;22.29;81.74;100412.91;4469648;32;20072;-66
2022/06/11 03:16:00;;;;;;;8.77;7.90;;;;;;;22.36;81.37;100419.63;4469728;32;20088;-66
2022/06/11 03:18:28;;;;;;;8.40;7.57;;;;;;;22.03;82.50;100421.62;4469477;32;20096;-66
2022/06/11 03:20:55;;;;;;;8.63;7.82;;;;;;;22.08;82.99;100417.69;4469510;32;20100;-66
2022/06/11 03:23:23;;;;;;;9.15;7.87;;;;;;;22.22;82.43;100422.28;4469437;32;20423;-66
2022/06/11 03:25:50;;;;;;;12.95;8.13;;;;;;;22.28;82.50;100419.22;4469409;32;20123;-66
2022/06/11 03:28:22;;;;;;;9.63;7.70;;;;;;;22.42;81.16;100424.63;4469227;32;20088;-66
2022/06/11 03:30:51;;;;;;;11.00;8.43;;;;;;;22.48;81.23;100430.59;4469280;32;20172;-66
2022/06/11 03:33:18;;;;;;;11.07;8.13;;;;;;;22.25;82.42;100435.50;4469288;32;20092;-66
2022/06/11 03:35:48;;;;;;;9.50;7.85;;;;;;;22.33;82.55;100441.31;4469248;32;20619;-66
2022/06/11 03:38:17;;;;;;;9.02;7.70;;;;;;;22.49;81.44;100445.75;4469079;32;20478;-66
2022/06/11 03:40:44;;;;;;;8.80;7.40;;;;;;;22.38;82.19;100452.62;4469243;32;20099;-66
2022/06/11 03:43:12;;;;;;;8.32;7.53;;;;;;;22.47;81.29;100450.34;4469195;32;20115;-66
2022/06/11 03:45:40;;;;;;;8.52;7.72;;;;;;;22.34;82.16;100450.22;4470959;32;20145;-66
2022/06/11 03:48:07;;;;;;;12.13;7.97;;;;;;;22.33;82.34;100453.84;4471188;32;20119;-66
2022/06/11 03:50:37;;;;;;;8.52;7.72;;;;;;;22.24;82.38;100444.53;4471089;32;20185;-66
2022/06/11 03:53:07;;;;;;;8.93;7.57;;;;;;;22.40;81.84;100444.47;4471020;32;20122;-66
2022/06/11 03:55:35;;;;;;;8.80;7.55;;;;;;;22.59;80.64;100449.59;4471139;32;20114;-66
2022/06/11 03:58:03;;;;;;;7.80;7.07;;;;;;;22.63;79.82;100454.69;4470971;32;20095;-66
2022/06/11 04:03:20;;;;;;;8.10;7.40;;;;;;;23.00;78.14;100452.44;4471171;32;20473;-66
2022/06/11 04:05:52;;;;;;;13.98;7.62;;;;;;;23.17;77.32;100458.59;4471013;32;20408;-66
2022/06/11 04:08:22;;;;;;;7.75;7.00;;;;;;;22.92;79.13;100462.81;4470920;32;20092;-66
2022/06/11 04:10:50;;;;;;;11.15;7.37;;;;;;;22.90;79.28;100459.34;4471249;32;20115;-66
2022/06/11 04:13:19;;;;;;;9.68;6.72;;;;;;;23.23;78.35;100466.28;4470956;32;20439;-66
2022/06/11 04:15:46;;;;;;;8.77;6.93;;;;;;;23.17;77.70;100461.28;4471193;32;20519;-66
2022/06/11 04:18:27;;;;;;;8.93;7.90;;;;;;;23.80;76.84;100467.06;4470910;32;20474;-66
2022/06/11 04:20:55;;;;;;;8.35;6.80;;;;;;;23.54;76.28;100460.66;4471030;32;20387;-66
2022/06/11 04:23:24;;;;;;;9.85;6.93;;;;;;;23.77;75.57;100452.94;4466744;32;130765;-66
2022/06/11 04:25:53;;;;;;;8.15;6.53;;;;;;;23.80;75.82;100445.53;4470912;32;20084;-66
2022/06/11 04:28:25;;;;;;;10.50;6.87;;;;;;;23.98;74.50;100451.53;4471029;32;20108;-66
2022/06/11 04:30:52;;;;;;;7.93;6.05;;;;;;;24.28;73.04;100448.62;4470843;32;20089;-66
2022/06/11 04:33:20;;;;;;;6.12;5.62;;;;;;;24.44;70.20;100450.28;4470994;32;20092;-66
2022/06/11 04:35:47;;;;;;;6.47;5.93;;;;;;;24.72;69.27;100452.78;4470839;32;20093;-66
2022/06/11 04:38:15;;;;;;;13.10;6.20;;;;;;;24.94;67.83;100453.97;4470798;32;20084;-66
2022/06/11 04:40:42;;;;;;;6.80;5.57;;;;;;;25.05;68.24;100456.75;4470928;32;20100;-66
2022/06/11 04:43:10;;;;;;;8.70;6.05;;;;;;;25.11;68.51;100460.91;4470726;32;20088;-66
2022/06/11 04:45:37;;;;;;;6.45;5.40;;;;;;;25.27;68.52;100457.00;4470690;32;20080;-66
2022/06/11 04:48:05;;;;;;;6.05;5.55;;;;;;;25.87;65.96;100463.44;4470793;32;20119;-66
2022/06/11 04:50:33;;;;;;;9.52;5.30;;;;;;;25.84;64.39;100465.50;4470700;32;20088;-66
2022/06/11 04:53:01;;;;;;;7.78;5.45;;;;;;;25.89;65.42;100472.28;4470646;32;20093;-66
2022/06/11 04:55:28;;;;;;;10.70;5.82;;;;;;;26.03;65.22;100473.94;4470208;32;20084;-66
2022/06/11 04:57:56;;;;;;;5.82;5.28;;;;;;;26.32;63.95;100470.87;4470650;32;20565;-66
2022/06/11 05:00:26;;;;;;;5.60;5.10;;;;;;;26.51;62.78;100471.22;4470721;32;20104;-66
2022/06/11 05:02:54;;;;;;;5.22;4.70;;;;;;;26.46;61.78;100473.38;4470667;32;20076;-66
2022/06/11 05:05:22;;;;;;;8.38;5.32;;;;;;;26.70;61.22;100478.75;4470775;32;20084;-66
2022/06/11 05:07:50;;;;;;;6.37;5.50;;;;;;;26.79;61.48;100483.47;4470580;32;20421;-66
2022/06/11 05:10:21;;;;;;;5.82;5.32;;;;;;;26.83;61.66;100486.78;4470564;32;20165;-66
2022/06/11 05:12:49;;;;;;;5.30;4.80;;;;;;;26.91;60.37;100484.34;4470766;32;20488;-67
2022/06/11 05:15:16;;;;;;;5.75;4.97;;;;;;;26.78;61.70;100488.97;4470474;32;20529;-66
2022/06/11 05:17:44;;;;;;;8.13;5.18;;;;;;;26.93;61.96;100498.63;4470692;32;20164;-66
2022/06/11 05:20:14;;;;;;;5.47;5.03;;;;;;;27.04;61.09;100501.31;4470493;32;20100;-66
2022/06/11 05:22:41;;;;;;;5.60;5.03;;;;;;;26.93;61.67;100504.03;4470605;32;20092;-66
2022/06/11 05:25:10;;;;;;;6.20;4.80;;;;;;;27.11;61.36;100505.28;4470756;32;20100;-66
2022/06/11 05:27:40;;;;;;;8.05;4.62;;;;;;;26.98;60.41;100506.34;4470454;32;20092;-66
2022/06/11 05:30:15;;;;;;;7.25;5.28;;;;;;;27.00;60.58;100505.25;4470278;32;20100;-66
2022/06/11 05:32:43;;;;;;;4.95;4.55;;;;;;;27.01;60.76;100504.28;4470485;32;20076;-66
2022/06/11 05:35:18;;;;;;;6.53;4.80;;;;;;;27.32;59.57;100504.56;4470372;32;20160;-66
2022/06/11 05:37:48;;;;;;;5.90;5.12;;;;;;;27.31;59.81;100503.69;4470347;32;20093;-66
2022/06/11 05:40:19;;;;;;;5.25;4.75;;;;;;;27.41;59.71;100509.22;4470517;32;20091;-66
2022/06/11 05:42:50;;;;;;;5.85;5.10;;;;;;;27.41;60.09;100506.53;4470429;32;20092;-66
2022/06/11 05:45:22;;;;;;;5.45;4.95;;;;;;;27.39;59.88;100509.38;4470335;32;20097;-66
2022/06/11 05:47:52;;;;;;;8.65;5.18;;;;;;;27.37;59.53;100505.91;4470495;32;20152;-66
2022/06/11 05:50:24;;;;;;;6.68;5.40;;;;;;;27.19;60.38;100509.25;4470323;32;20108;-66
2022/06/11 05:52:55;;;;;;;5.72;5.15;;;;;;;27.36;60.82;100515.03;4470260;32;20072;-66
2022/06/11 05:55:25;;;;;;;8.65;5.68;;;;;;;27.59;59.22;100513.16;4470333;32;20103;-67
2022/06/11 05:57:55;;;;;;;6.93;5.35;;;;;;;27.35;59.70;100516.03;4470161;32;20226;-66
2022/06/11 06:00:24;;;;;;;5.50;5.00;;;;;;;27.23;60.79;100524.25;4470202;32;20123;-66
2022/06/11 06:02:51;;;;;;;6.80;5.62;;;;;;;27.60;58.98;100523.03;4470209;32;20141;-66
2022/06/11 06:05:24;;;;;;;6.53;5.10;;;;;;;27.41;60.41;100522.75;4455686;32;20135;-66
2022/06/11 06:07:52;;;;;;;8.10;5.72;;;;;;;27.26;59.08;100516.75;4468971;32;20471;-66
2022/06/11 06:10:20;;;;;;;6.37;5.68;;;;;;;26.81;62.45;100522.03;4470133;32;20168;-67
2022/06/11 06:12:47;;;;;;;6.03;5.35;;;;;;;27.07;62.80;100524.56;4470135;32;20407;-66
2022/06/11 06:15:23;;;;;;;6.85;6.12;;;;;;;26.98;63.22;100523.44;4455495;32;20100;-67
2022/06/11 06:17:52;;;;;;;7.95;5.68;;;;;;;27.19;62.60;100520.06;4470168;32;20119;-66
2022/06/11 06:20:22;;;;;;;15.38;5.93;;;;;;;27.27;63.71;100513.03;4469906;32;20599;-66
2022/06/11 06:22:50;;;;;;;6.28;5.68;;;;;;;27.21;62.20;100523.50;4469968;32;20088;-66
2022/06/11 06:25:20;;;;;;;7.75;5.07;;;;;;;27.26;61.72;100522.16;4470042;32;20593;-66
2022/06/11 06:27:48;;;;;;;9.20;6.07;;;;;;;27.40;62.31;100515.63;4470378;32;20425;-66
2022/06/11 06:30:18;;;;;;;8.70;5.82;;;;;;;27.00;62.55;100507.06;4470041;32;20460;-66
2022/06/11 06:32:45;;;;;;;9.20;5.25;;;;;;;26.90;64.03;100510.53;4470114;32;20136;-67
2022/06/11 06:35:13;;;;;;;8.35;5.50;;;;;;;27.16;63.01;100507.63;4470140;32;20157;-67
2022/06/11 06:37:40;;;;;;;6.57;5.32;;;;;;;26.86;63.09;100500.06;4470010;32;20105;-67
2022/06/11 06:40:08;;;;;;;8.00;5.90;;;;;;;26.85;63.61;100507.28;4469975;32;20101;-66
2022/06/11 06:42:35;;;;;;;10.25;5.43;;;;;;;27.24;64.10;100512.44;4469954;32;20103;-66
2022/06/11 06:45:03;;;;;;;5.65;4.78;;;;;;;27.31;62.68;100516.38;4470081;32;20096;-66
2022/06/11 06:47:30;;;;;;;5.37;4.95;;;;;;;27.31;61.10;100519.06;4469774;32;20101;-67
2022/06/11 06:49:57;;;;;;;5.68;5.18;;;;;;;27.42;60.25;100516.34;4469838;32;20108;-66
2022/06/11 06:52:24;;;;;;;5.60;5.10;;;;;;;27.22;59.52;100515.25;4469932;32;20115;-66
2022/06/11 06:54:51;;;;;;;6.12;4.93;;;;;;;27.20;60.39;100516.38;4469785;32;20100;-67
2022/06/11 06:57:19;;;;;;;5.80;4.93;;;;;;;27.11;62.04;100518.78;4469807;32;20139;-66
2022/06/11 06:59:46;;;;;;;8.77;4.95;;;;;;;27.45;60.40;100512.56;4469842;32;20124;-66
2022/06/11 07:02:17;;;;;;;7.20;5.18;;;;;;;27.81;60.72;100525.84;4469713;32;20131;-66
2022/06/11 07:04:45;;;;;;;8.90;4.90;;;;;;;28.11;57.50;100527.00;4469684;32;20100;-66
2022/06/11 07:07:16;;;;;;;4.82;4.43;;;;;;;27.86;57.03;100525.47;4469966;32;20526;-67
2022/06/11 07:09:44;;;;;;;8.98;5.10;;;;;;;28.20;57.46;100528.97;4469678;32;20523;-66
2022/06/11 07:12:11;;;;;;;7.70;4.60;;;;;;;28.46;56.01;100523.22;4469465;32;20364;-67
2022/06/11 07:14:38;;;;;;;4.95;4.55;;;;;;;27.86;57.52;100520.06;4469582;32;20141;-67
2022/06/11 07:17:08;;;;;;;8.02;4.68;;;;;;;28.07;57.07;100512.88;4469615;32;20454;-66
2022/06/11 07:19:41;;;;;;;4.53;4.12;;;;;;;28.45;57.47;100510.69;4468940;32;20176;-67
2022/06/11 07:22:20;;;;;;;4.78;4.28;;;;;;;28.55;55.78;100514.28;4469478;32;20076;-67
2022/06/11 07:24:47;;;;;;;5.30;4.75;;;;;;;28.73;54.20;100507.31;4469498;32;20096;-67
2022/06/11 07:27:21;;;;;;;4.95;4.55;;;;;;;28.57;55.49;100505.06;4469542;32;20101;-67
2022/06/11 07:30:16;;;;;;;5.50;4.32;;;;;;;28.89;54.17;100509.56;4469443;32;20606;-67
2022/06/11 07:32:47;;;;;;;4.93;4.50;;;;;;;28.81;56.28;100509.38;4469526;32;20084;-67
2022/06/11 07:35:16;;;;;;;5.50;4.80;;;;;;;29.21;54.00;100508.63;4469322;32;20080;-67
2022/06/11 07:37:48;;;;;;;4.82;4.32;;;;;;;28.55;55.42;100520.59;4469163;32;20085;-67
2022/06/11 07:40:18;;;;;;;8.38;4.72;;;;;;;28.42;56.31;100519.91;4469061;32;20093;-67
2022/06/11 07:42:45;;;;;;;5.72;5.20;;;;;;;28.41;57.74;100520.91;4469321;32;20080;-66
2022/06/11 07:45:13;;;;;;;5.10;4.70;;;;;;;28.56;56.06;100519.59;4469068;32;20100;-66
2022/06/11 07:47:56;;;;;;;7.05;4.97;;;;;;;28.46;57.70;100518.66;4468979;32;20168;-67
2022/06/11 07:50:30;;;;;;;6.37;4.78;;;;;;;28.71;56.35;100524.72;4469013;32;20130;-67
2022/06/11 07:52:59;;;;;;;7.72;4.93;;;;;;;28.77;55.68;100519.63;4468995;32;20068;-67
2022/06/11 07:55:28;;;;;;;5.35;4.95;;;;;;;28.91;55.91;100523.84;4468889;32;20442;-67
2022/06/11 07:57:55;;;;;;;5.72;4.75;;;;;;;29.22;55.68;100515.75;4468938;32;20482;-67
2022/06/11 08:00:36;;;;;;;11.15;5.05;;;;;;;29.42;55.62;100525.72;4468836;32;20164;-66
2022/06/11 08:03:05;;;;;;;4.78;4.35;;;;;;;29.34;54.64;100532.84;4454119;32;20092;-67
2022/06/11 08:05:33;;;;;;;4.93;4.50;;;;;;;29.27;54.33;100521.66;4468830;32;20095;-66
2022/06/11 08:08:01;;;;;;;5.50;4.40;;;;;;;29.28;55.34;100526.09;4468786;32;20096;-67
2022/06/11 08:10:29;;;;;;;5.75;5.00;;;;;;;28.87;55.65;100518.81;4468757;32;20127;-67
2022/06/11 08:12:57;;;;;;;5.68;4.45;;;;;;;29.31;56.73;100520.38;4468786;32;20383;-66
2022/06/11 08:15:25;;;;;;;5.85;5.20;;;;;;;29.69;53.98;100524.28;4468671;32;20157;-67
2022/06/11 08:17:53;;;;;;;6.15;4.50;;;;;;;30.40;53.26;100524.16;4468712;32;20119;-67
2022/06/11 08:20:28;;;;;;;5.07;4.62;;;;;;;30.39;52.95;100525.13;4468510;32;20097;-66
2022/06/11 08:22:56;;;;;;;4.97;4.40;;;;;;;30.49;51.60;100517.84;4468746;32;20655;-67
2022/06/11 08:25:23;;;;;;;8.25;4.80;;;;;;;30.35;51.31;100519.13;4453764;32;20481;-67
2022/06/11 08:27:51;;;;;;;4.85;4.20;;;;;;;30.33;52.29;100523.00;4468534;32;20615;-67
2022/06/11 08:30:22;;;;;;;4.37;4.07;;;;;;;30.42;48.30;100506.69;4468356;32;20175;-67
2022/06/11 08:32:50;;;;;;;4.78;4.37;;;;;;;30.77;49.77;100501.69;4470789;32;20509;-67
2022/06/11 08:35:21;;;;;;;8.02;4.15;;;;;;;31.44;48.15;100500.63;4471060;32;20165;-67
2022/06/11 08:37:50;;;;;;;5.82;4.15;;;;;;;31.06;48.47;100509.78;4470759;32;20076;-67
2022/06/11 08:40:33;;;;;;;4.62;4.22;;;;;;;30.67;49.31;100510.69;4470923;32;20135;-67
2022/06/11 08:43:26;;;;;;;4.82;4.00;;;;;;;30.97;50.19;100506.09;4470903;32;20184;-67
2022/06/11 08:46:02;;;;;;;3.80;3.50;;;;;;;30.69;47.78;100495.06;4470776;32;20080;-67
2022/06/11 08:48:42;;;;;;;4.10;3.75;;;;;;;30.91;44.53;100498.50;4470711;32;20144;-67
2022/06/11 08:51:26;;;;;;;8.38;4.05;;;;;;;31.67;44.82;100492.94;4470941;32;20096;-67
2022/06/11 08:53:58;;;;;;;6.03;3.17;;;;;;;31.80;45.22;100490.69;4470606;32;20111;-67
2022/06/11 08:56:32;;;;;;;3.85;3.50;;;;;;;32.34;40.27;100497.09;4470696;32;20076;-67
2022/06/11 08:59:39;;;;;;;7.00;4.00;;;;;;;32.95;40.63;100495.41;4470687;32;20115;-67
2022/06/11 09:02:12;;;;;;;4.62;4.32;;;;;;;31.88;45.44;100496.28;4470547;32;20127;-67
2022/06/11 09:04:52;;;;;;;4.68;4.28;;;;;;;31.28;47.10;100492.25;4470511;32;20076;-67
2022/06/11 09:07:25;;;;;;;4.40;4.00;;;;;;;30.89;48.00;100490.50;4470606;32;20109;-67
2022/06/11 09:10:27;;;;;;;4.53;4.15;;;;;;;31.08;49.22;100494.16;4470583;32;20491;-67
2022/06/11 09:13:13;;;;;;;4.30;3.95;;;;;;;30.79;49.53;100486.94;4470650;32;20535;-67
2022/06/11 09:15:53;;;;;;;4.93;4.30;;;;;;;30.90;46.95;100491.34;4470523;32;20497;-67
2022/06/11 09:18:56;;;;;;;4.30;3.78;;;;;;;30.24;50.30;100483.94;4470494;32;20460;-66
2022/06/11 09:21:38;;;;;;;6.72;4.47;;;;;;;30.58;49.35;100499.81;4456727;32;20838;-67
2022/06/11 09:24:12;;;;;;;8.73;4.05;;;;;;;30.54;49.49;100488.37;4470639;32;20153;-67
2022/06/11 09:26:48;;;;;;;4.18;3.78;;;;;;;31.02;47.52;100482.00;4470487;32;20529;-67
2022/06/11 09:29:33;;;;;;;4.37;3.72;;;;;;;31.23;46.39;100486.38;4470530;32;20101;-67
2022/06/11 09:32:13;;;;;;;4.47;4.10;;;;;;;30.77;47.45;100480.78;4470352;32;20157;-67
2022/06/11 09:35:06;;;;;;;4.78;3.78;;;;;;;30.70;48.13;100476.88;4470548;32;20553;-67
2022/06/11 09:38:06;;;;;;;4.78;4.30;;;;;;;30.76;46.89;100476.34;4462237;32;20137;-67
2022/06/11 09:40:50;;;;;;;8.07;4.53;;;;;;;30.46;48.74;100480.94;4470409;32;20488;-67
2022/06/11 09:43:35;;;;;;;4.50;4.10;;;;;;;30.21;50.57;100479.66;4470074;32;20145;-67
2022/06/11 09:46:35;;;;;;;8.35;4.03;;;;;;;30.43;50.71;100486.66;4470614;32;20449;-67
2022/06/11 09:49:11;;;;;;;5.62;4.43;;;;;;;30.78;49.86;100479.78;4470229;32;20420;-67
2022/06/11 09:52:07;;;;;;;5.87;4.15;;;;;;;30.83;49.36;100482.91;4470442;32;20392;-67
2022/06/11 09:54:43;;;;;;;4.55;4.15;;;;;;;31.17;48.70;100480.53;4470304;32;20154;-67
2022/06/11 09:57:17;;;;;;;4.40;4.00;;;;;;;31.63;48.00;100480.66;4470357;32;20468;-66
2022/06/11 09:59:54;;;;;;;4.20;3.90;;;;;;;32.60;46.05;100477.22;4470175;32;20191;-67
2022/06/11 10:05:31;;;;;;;5.03;4.40;;;;;;;33.16;40.80;100475.06;4470258;32;20096;-67
2022/06/11 10:08:12;;;;;;;4.15;3.67;;;;;;;33.67;41.23;100487.78;4470220;32;20470;-67
2022/06/11 10:10:45;;;;;;;3.70;3.50;;;;;;;34.02;40.39;100488.59;4470390;32;20163;-67
2022/06/11 10:13:32;;;;;;;4.60;3.90;;;;;;;33.67;41.44;100485.03;4470252;32;20088;-67
2022/06/11 10:16:11;;;;;;;5.80;3.70;;;;;;;33.41;42.76;100473.31;4470139;32;20104;-67
2022/06/11 10:18:39;;;;;;;9.45;4.12;;;;;;;32.59;44.83;100472.78;4470105;32;20214;-67
2022/06/11 10:21:20;;;;;;;3.95;3.65;;;;;;;32.23;46.32;100463.72;4469956;32;20110;-67
2022/06/11 10:23:58;;;;;;;5.35;3.62;;;;;;;32.26;44.71;100471.59;4470107;32;20084;-67
2022/06/11 10:26:50;;;;;;;4.22;3.92;;;;;;;32.03;43.65;100465.78;4470149;32;20564;-67
2022/06/11 10:29:34;;;;;;;4.18;3.62;;;;;;;32.06;44.91;100465.47;4470044;32;20108;-67
2022/06/11 10:32:11;;;;;;;6.47;4.22;;;;;;;31.79;46.09;100453.56;4469920;32;20513;-67
2022/06/11 10:34:45;;;;;;;5.35;3.80;;;;;;;32.27;45.04;100463.28;4470034;32;20096;-67
2022/06/11 10:37:26;;;;;;;4.85;4.07;;;;;;;32.20;44.41;100461.34;4470042;32;20092;-67
2022/06/11 10:39:53;;;;;;;7.20;3.65;;;;;;;32.53;43.98;100457.03;4469877;32;20560;-67
2022/06/11 10:42:36;;;;;;;4.32;3.92;;;;;;;32.02;45.55;100455.91;4469803;32;20129;-67
2022/06/11 10:45:04;;;;;;;4.37;4.03;;;;;;;31.12;47.21;100461.06;4469902;32;20100;-67
2022/06/11 10:47:38;;;;;;;4.45;3.67;;;;;;;31.11;47.50;100466.66;4469801;32;20436;-67
2022/06/11 10:50:13;;;;;;;9.15;3.87;;;;;;;31.52;46.85;100453.59;4470018;32;20151;-67
2022/06/11 10:52:53;;;;;;;3.90;3.60;;;;;;;32.09;44.61;100467.87;4469922;32;20192;-67
2022/06/11 10:55:32;;;;;;;9.25;3.22;;;;;;;33.37;43.03;100461.00;4469129;32;20084;-67
2022/06/11 10:58:35;;;;;;;4.10;3.40;;;;;;;33.73;40.45;100458.94;4469855;32;20113;-67
2022/06/11 11:01:19;;;;;;;3.50;3.20;;;;;;;33.33;40.97;100459.62;4448048;32;20114;-67
2022/06/11 11:04:22;;;;;;;4.03;3.70;;;;;;;32.82;42.65;100457.59;4469735;32;20510;-67
2022/06/11 11:07:12;;;;;;;6.43;3.65;;;;;;;32.82;43.13;100459.47;4466137;32;20156;-67
2022/06/11 11:09:40;;;;;;;3.12;2.92;;;;;;;33.32;41.61;100447.81;4469700;32;20076;-67
2022/06/11 11:12:16;;;;;;;5.12;3.35;;;;;;;33.13;41.36;100454.41;4469674;32;20513;-67
2022/06/11 11:14:46;;;;;;;3.40;3.10;;;;;;;33.84;41.23;100455.03;4456164;32;20448;-67
2022/06/11 11:17:19;;;;;;;3.30;3.00;;;;;;;34.36;39.34;100452.06;4469751;32;20096;-67
2022/06/11 11:22:51;;;;;;;5.10;3.30;;;;;;;33.61;40.66;100455.66;4469538;32;20092;-67
2022/06/11 11:25:29;;;;;;;4.43;2.85;;;;;;;33.30;40.54;100455.34;4469424;32;20126;-67
2022/06/11 11:27:57;;;;;;;3.53;3.25;;;;;;;32.64;41.96;100447.75;4469620;32;20146;-67
2022/06/11 11:30:39;;;;;;;3.35;2.90;;;;;;;32.08;42.70;100447.06;4469178;32;20089;-67
2022/06/11 11:33:23;;;;;;;6.30;3.22;;;;;;;31.78;43.90;100442.84;4469365;32;20123;-67
2022/06/11 11:36:01;;;;;;;4.40;3.03;;;;;;;32.55;42.22;100433.22;4469259;32;20076;-67
2022/06/11 11:38:28;;;;;;;3.58;3.28;;;;;;;33.12;40.67;100435.47;4469283;32;20127;-67
2022/06/11 11:41:01;;;;;;;2.87;2.70;;;;;;;34.53;38.43;100431.91;4469111;32;20119;-67
2022/06/11 11:43:41;;;;;;;2.72;2.53;;;;;;;36.25;36.25;100417.47;4469234;32;20458;-67
2022/06/11 11:46:17;;;;;;;3.95;3.00;;;;;;;36.05;35.51;100417.13;4469158;32;20076;-67
2022/06/11 11:48:50;;;;;;;7.25;3.20;;;;;;;36.68;35.24;100404.03;4469163;32;20128;-67
2022/06/11 11:51:25;;;;;;;3.03;2.83;;;;;;;36.67;35.01;100411.44;4469159;32;20149;-67
2022/06/11 11:53:59;;;;;;;4.05;2.60;;;;;;;37.72;33.34;100413.09;4469111;32;20088;-67
2022/06/11 11:56:40;;;;;;;2.95;2.75;;;;;;;37.68;32.68;100415.38;4469116;32;20100;-67
2022/06/11 11:59:25;;;;;;;3.05;2.85;;;;;;;39.35;31.25;100409.38;4469097;32;20114;-67
2022/06/11 12:01:55;;;;;;;3.37;2.75;;;;;;;39.63;30.08;100420.28;4469143;32;20096;-67
2022/06/11 12:05:10;;;;;;;4.97;2.97;;;;;;;39.66;30.12;100403.34;4468917;32;20552;-67